Gas City, IN (46933)

2:44 PM EST on December 03, 2016 (GMT -0500)
MY Yard Barn | | Change Station

Elev 853 ft 40.49 °N, 85.62 °W | Updated 2 minutes ago

Haze
Haze
38.0 °F
Feels Like 33 °F
N
7.0
Wind Variable Wind from SW
Gusts 9.8 mph

Today
High -- | Low -- °F
--% Chance of Precip.
Yesterday
High -- | Low -- °F
Precip. -- in
Pressure 30.33 in
Visibility 5.0 miles
Clouds Overcast 2600 ft
Windchill 33 °F
Dew Point 33 °F
Humidity 81%
Rainfall 0.00 in
Snow Depth Not available.
7:48 AM 5:15 PM
Waxing Crescent, 16% visible
METAR KMZZ 031935Z AUTO 25008KT 5SM HZ OVC026 03/M02 A3033 RMK AO2 T00251020
Pressure 30.33 in
Visibility 5.0 miles
Clouds Overcast 2600 ft
Windchill 33 °F
Dew Point 33 °F
Humidity 81%
Rainfall 0.00 in
Snow Depth Not available.
7:48 AM 5:15 PM
Waxing Crescent, 16% visible
METAR KMZZ 031935Z AUTO 25008KT 5SM HZ OVC026 03/M02 A3033 RMK AO2 T00251020

10-Day Weather Forecast

Almanac

Astronomy

Dec. 03, 2016 Rise Set
Actual Time
Civil Twilight
Nautical Twilight
Astronomical Twilight
Moon
Length of Visible Light
Length of Day
Tomorrow will be .
, % of the Moon is Illuminated

Today's Extremes

State Highs State Lows

Community

WunderPhotos

Upload Photos

1,955,481 photos uploaded!

WunderBlog® & News

Nearby

Air Quality

  Air Quality AQ Index Pollutant
Not available.

Snow Depth

Station Depth Elevation

Earthquake Activity

City Distance Mag. Time & Date
Minimum magnitude displayed is 2.5.

Coastal Water Temperatures

Place Temperature

Stations

Nearby Weather Stations

Station Location Temp. Windchill Dew Point Humidity Wind Precip. Elev Updated Type
                   

Watches & Warnings

There are currently no watches in effect.